sensor_id;sensor_type;location;lat;lon;timestamp;pressure;altitude;pressure_sealevel;temperature;humidity
80869;BME280;70295;40.182;44.498;2023-05-29T00:00:40;89936.27;;;21.32;41.5207
80869;BME280;70295;40.182;44.498;2023-05-29T00:01:40;89941.55;;;21.34;41.39863
80869;BME280;70295;40.182;44.498;2023-05-29T00:10:30;89943.45;;;21.47;40.69551
80869;BME280;70295;40.182;44.498;2023-05-29T00:15:16;89950.77;;;21.52;40.74531
80869;BME280;70295;40.182;44.498;2023-05-29T00:16:16;89943.77;;;21.51;40.76582
80869;BME280;70295;40.182;44.498;2023-05-29T00:17:16;89943.78;;;21.48;40.78633
80869;BME280;70295;40.182;44.498;2023-05-29T00:18:16;89947.07;;;21.47;40.76289
80869;BME280;70295;40.182;44.498;2023-05-29T00:19:16;89947.69;;;21.46;40.76191
80869;BME280;70295;40.182;44.498;2023-05-29T00:20:16;89947.38;;;21.45;40.7043
80869;BME280;70295;40.182;44.498;2023-05-29T00:21:16;89948.7;;;21.45;40.61348
80869;BME280;70295;40.182;44.498;2023-05-29T00:22:16;89951.19;;;21.45;40.52266
80869;BME280;70295;40.182;44.498;2023-05-29T00:23:17;89949.45;;;21.44;40.4875
80869;BME280;70295;40.182;44.498;2023-05-29T00:26:08;89952.33;;;21.38;40.675
80869;BME280;70295;40.182;44.498;2023-05-29T00:27:07;89953.15;;;21.4;40.64277
80869;BME280;70295;40.182;44.498;2023-05-29T00:28:07;89954.35;;;21.41;40.54121
80869;BME280;70295;40.182;44.498;2023-05-29T00:29:07;89958.53;;;21.41;40.51777
80869;BME280;70295;40.182;44.498;2023-05-29T00:30:07;89961.84;;;21.4;40.48359
80869;BME280;70295;40.182;44.498;2023-05-29T00:31:07;89968.49;;;21.38;40.48164
80869;BME280;70295;40.182;44.498;2023-05-29T00:32:07;89968.33;;;21.37;40.46992
80869;BME280;70295;40.182;44.498;2023-05-29T00:33:07;89971.41;;;21.37;40.46992
80869;BME280;70295;40.182;44.498;2023-05-29T00:35:07;89969.91;;;21.38;40.70918
80869;BME280;70295;40.182;44.498;2023-05-29T00:36:07;89974.73;;;21.39;40.81269
80869;BME280;70295;40.182;44.498;2023-05-29T00:37:07;89973.73;;;21.41;40.82539
80869;BME280;70295;40.182;44.498;2023-05-29T00:38:07;89973.17;;;21.41;40.84785
80869;BME280;70295;40.182;44.498;2023-05-29T00:39:07;89972.88;;;21.4;40.92695
80869;BME280;70295;40.182;44.498;2023-05-29T00:40:07;89975.59;;;21.4;40.97187
80869;BME280;70295;40.182;44.498;2023-05-29T00:41:07;89972.3;;;21.38;41.02656
80869;BME280;70295;40.182;44.498;2023-05-29T00:45:09;89975.77;;;21.43;41.03144
80869;BME280;70295;40.182;44.498;2023-05-29T00:48:51;89984.3;;;21.43;41.62226
80869;BME280;70295;40.182;44.498;2023-05-29T01:03:43;89986.02;;;21.65;43.05195
80869;BME280;70295;40.182;44.498;2023-05-29T01:04:44;89983.02;;;21.67;43.13301
80869;BME280;70295;40.182;44.498;2023-05-29T01:05:43;89980.63;;;21.67;43.16719
80869;BME280;70295;40.182;44.498;2023-05-29T01:06:43;89983.63;;;21.66;43.16621
80869;BME280;70295;40.182;44.498;2023-05-29T01:07:43;89983.45;;;21.66;43.14375
80869;BME280;70295;40.182;44.498;2023-05-29T01:08:43;89983.36;;;21.64;43.2668
80869;BME280;70295;40.182;44.498;2023-05-29T01:09:43;89980.41;;;21.61;43.46797
80869;BME280;70295;40.182;44.498;2023-05-29T01:10:43;89982.09;;;21.61;43.60371
80869;BME280;70295;40.182;44.498;2023-05-29T01:13:22;89971.77;;;21.46;43.65742
80869;BME280;70295;40.182;44.498;2023-05-29T01:13:57;89973.89;;;21.5;43.67305
80869;BME280;70295;40.182;44.498;2023-05-29T01:27:26;89977.91;;;21.29;43.39082
80869;BME280;70295;40.182;44.498;2023-05-29T01:28:27;89976.96;;;21.27;43.35469
80869;BME280;70295;40.182;44.498;2023-05-29T01:29:21;89979.16;;;21.26;43.26289
80869;BME280;70295;40.182;44.498;2023-05-29T01:30:09;89984.48;;;21.25;43.11445
80869;BME280;70295;40.182;44.498;2023-05-29T01:31:09;89985.92;;;21.25;42.98945
80869;BME280;70295;40.182;44.498;2023-05-29T01:32:09;89987.42;;;21.25;42.90937
80869;BME280;70295;40.182;44.498;2023-05-29T01:33:09;89986.77;;;21.23;42.86348
80869;BME280;70295;40.182;44.498;2023-05-29T01:34:09;89990.96;;;21.23;42.80586
80869;BME280;70295;40.182;44.498;2023-05-29T01:35:09;89993.84;;;21.23;42.71601
80869;BME280;70295;40.182;44.498;2023-05-29T01:36:09;89992.04;;;21.23;42.67012
80869;BME280;70295;40.182;44.498;2023-05-29T01:37:09;89991.72;;;21.22;42.77168
80869;BME280;70295;40.182;44.498;2023-05-29T01:38:09;89993.73;;;21.22;42.90644
80869;BME280;70295;40.182;44.498;2023-05-29T01:39:09;89996.31;;;21.21;43.01973
80869;BME280;70295;40.182;44.498;2023-05-29T01:40:09;89999.06;;;21.2;43.08711
80869;BME280;70295;40.182;44.498;2023-05-29T01:41:09;90000.99;;;21.19;43.24434
80869;BME280;70295;40.182;44.498;2023-05-29T01:42:09;90005.58;;;21.18;43.48164
80869;BME280;70295;40.182;44.498;2023-05-29T01:43:09;90007;;;21.15;43.73945
80869;BME280;70295;40.182;44.498;2023-05-29T01:44:09;90013.32;;;21.15;43.88789
80869;BME280;70295;40.182;44.498;2023-05-29T01:45:09;90015.55;;;21.15;43.97773
80869;BME280;70295;40.182;44.498;2023-05-29T01:46:09;90018.64;;;21.14;43.96504
80869;BME280;70295;40.182;44.498;2023-05-29T01:47:09;90021;;;21.14;44.04512
80869;BME280;70295;40.182;44.498;2023-05-29T01:48:09;90016.7;;;21.13;44.12324
80869;BME280;70295;40.182;44.498;2023-05-29T01:49:09;90016.77;;;21.12;44.2248
80869;BME280;70295;40.182;44.498;2023-05-29T01:50:09;90017.13;;;21.12;44.31562
80869;BME280;70295;40.182;44.498;2023-05-29T01:50:59;90012.25;;;21.12;44.31562
80869;BME280;70295;40.182;44.498;2023-05-29T01:51:59;90009.72;;;21.12;44.32637
80869;BME280;70295;40.182;44.498;2023-05-29T01:52:59;90008.08;;;21.12;44.31562
80869;BME280;70295;40.182;44.498;2023-05-29T01:53:59;90004.12;;;21.12;44.26875
80869;BME280;70295;40.182;44.498;2023-05-29T01:54:59;90007.61;;;21.11;44.25801
80869;BME280;70295;40.182;44.498;2023-05-29T01:55:59;90008.22;;;21.1;44.32441
80869;BME280;70295;40.182;44.498;2023-05-29T01:56:59;90004.96;;;21.1;44.33613
80869;BME280;70295;40.182;44.498;2023-05-29T01:57:59;90009.98;;;21.11;44.30293
80869;BME280;70295;40.182;44.498;2023-05-29T01:58:59;90006.19;;;21.1;44.37031
80869;BME280;70295;40.182;44.498;2023-05-29T01:59:59;90005.7;;;21.1;44.5959
80869;BME280;70295;40.182;44.498;2023-05-29T02:00:59;90007.14;;;21.1;44.7209
80869;BME280;70295;40.182;44.498;2023-05-29T02:02:53;90010.59;;;21.07;45.21601
80869;BME280;70295;40.182;44.498;2023-05-29T02:03:53;90009.89;;;21.06;45.4875
80869;BME280;70295;40.182;44.498;2023-05-29T02:04:53;90009.65;;;21.04;45.67793
80869;BME280;70295;40.182;44.498;2023-05-29T02:05:53;90011.41;;;21.02;45.9709
80869;BME280;70295;40.182;44.498;2023-05-29T02:06:53;90009.23;;;21.02;46.16328
80869;BME280;70295;40.182;44.498;2023-05-29T02:07:53;90008.83;;;21;46.34199
80869;BME280;70295;40.182;44.498;2023-05-29T02:08:53;90004.61;;;20.98;46.61152
80869;BME280;70295;40.182;44.498;2023-05-29T02:09:53;90010.55;;;20.95;46.82441
80869;BME280;70295;40.182;44.498;2023-05-29T02:10:53;90013.31;;;20.95;46.91426
80869;BME280;70295;40.182;44.498;2023-05-29T02:11:53;90009.91;;;20.91;47.08027
80869;BME280;70295;40.182;44.498;2023-05-29T02:12:53;90010.98;;;20.88;47.30293
80869;BME280;70295;40.182;44.498;2023-05-29T02:13:53;90009.38;;;20.84;47.46992
80869;BME280;70295;40.182;44.498;2023-05-29T02:14:53;90007.5;;;20.83;47.67109
80869;BME280;70295;40.182;44.498;2023-05-29T02:15:53;90009.34;;;20.82;47.84004
80869;BME280;70295;40.182;44.498;2023-05-29T02:16:53;90005.42;;;20.81;47.9748
80869;BME280;70295;40.182;44.498;2023-05-29T02:17:53;90004.86;;;20.81;48.0666
80869;BME280;70295;40.182;44.498;2023-05-29T02:18:53;90005.41;;;20.81;48.24629
80869;BME280;70295;40.182;44.498;2023-05-29T02:19:53;90000.9;;;20.81;48.42793
80869;BME280;70295;40.182;44.498;2023-05-29T02:20:53;90002.58;;;20.8;48.49434
80869;BME280;70295;40.182;44.498;2023-05-29T02:21:53;90003.86;;;20.8;48.65254
80869;BME280;70295;40.182;44.498;2023-05-29T02:22:53;89999.52;;;20.8;48.69844
80869;BME280;70295;40.182;44.498;2023-05-29T02:23:53;89996.8;;;20.8;48.73164
80869;BME280;70295;40.182;44.498;2023-05-29T02:24:53;89998.47;;;20.79;48.77754
80869;BME280;70295;40.182;44.498;2023-05-29T02:25:53;89999.75;;;20.79;48.80976
80869;BME280;70295;40.182;44.498;2023-05-29T02:26:53;90000.66;;;20.79;48.90059
80869;BME280;70295;40.182;44.498;2023-05-29T02:27:53;90006.8;;;20.79;49.01387
80869;BME280;70295;40.182;44.498;2023-05-29T02:28:53;90011.89;;;20.78;48.94453
80869;BME280;70295;40.182;44.498;2023-05-29T02:29:53;90006.16;;;20.78;48.79707
80869;BME280;70295;40.182;44.498;2023-05-29T02:30:53;90009.23;;;20.78;48.75117
80869;BME280;70295;40.182;44.498;2023-05-29T02:31:53;90006.98;;;20.79;48.76484
80869;BME280;70295;40.182;44.498;2023-05-29T02:32:53;90006.83;;;20.78;48.88887
80869;BME280;70295;40.182;44.498;2023-05-29T02:33:53;90004.63;;;20.79;49.04805
80869;BME280;70295;40.182;44.498;2023-05-29T02:34:53;90007.48;;;20.8;49.07148
80869;BME280;70295;40.182;44.498;2023-05-29T02:35:53;90015.06;;;20.8;48.96992
80869;BME280;70295;40.182;44.498;2023-05-29T02:36:53;90019.34;;;20.81;48.73262
80869;BME280;70295;40.182;44.498;2023-05-29T02:37:53;90023.68;;;20.81;48.63105
80869;BME280;70295;40.182;44.498;2023-05-29T02:38:53;90026.63;;;20.8;48.73164
80869;BME280;70295;40.182;44.498;2023-05-29T02:39:53;90026.23;;;20.78;48.96601
80869;BME280;70295;40.182;44.498;2023-05-29T02:40:53;90024.56;;;20.75;49.16816
80869;BME280;70295;40.182;44.498;2023-05-29T02:41:53;90027.14;;;20.75;49.36055
80869;BME280;70295;40.182;44.498;2023-05-29T02:42:53;90026.67;;;20.76;49.41816
80869;BME280;70295;40.182;44.498;2023-05-29T02:43:53;90031.17;;;20.77;49.41914
80869;BME280;70295;40.182;44.498;2023-05-29T02:44:53;90036.77;;;20.77;49.48652
80869;BME280;70295;40.182;44.498;2023-05-29T02:45:53;90037.5;;;20.77;49.5998
80869;BME280;70295;40.182;44.498;2023-05-29T02:46:53;90043.59;;;20.78;49.67891
80869;BME280;70295;40.182;44.498;2023-05-29T02:47:53;90043.89;;;20.79;49.68086
80869;BME280;70295;40.182;44.498;2023-05-29T02:48:53;90046.66;;;20.81;49.68379
80869;BME280;70295;40.182;44.498;2023-05-29T02:49:53;90048.41;;;20.82;49.77461
80869;BME280;70295;40.182;44.498;2023-05-29T02:50:53;90048.51;;;20.84;49.81074
80869;BME280;70295;40.182;44.498;2023-05-29T02:51:53;90054.13;;;20.86;49.74629
80869;BME280;70295;40.182;44.498;2023-05-29T02:52:53;90051.93;;;20.87;49.75898
80869;BME280;70295;40.182;44.498;2023-05-29T02:53:53;90051.64;;;20.88;49.8498
80869;BME280;70295;40.182;44.498;2023-05-29T02:54:53;90052;;;20.89;49.9416
80869;BME280;70295;40.182;44.498;2023-05-29T02:55:53;90051.98;;;20.89;49.98652
80869;BME280;70295;40.182;44.498;2023-05-29T02:56:53;90052.06;;;20.91;49.97773
80869;BME280;70295;40.182;44.498;2023-05-29T02:57:53;90048.37;;;20.93;49.92305
80869;BME280;70295;40.182;44.498;2023-05-29T02:58:53;90051.34;;;20.94;49.8791
80869;BME280;70295;40.182;44.498;2023-05-29T02:59:53;90052.58;;;20.95;49.75605
80869;BME280;70295;40.182;44.498;2023-05-29T03:00:53;90056.5;;;20.96;49.68867
80869;BME280;70295;40.182;44.498;2023-05-29T03:01:53;90054.05;;;20.97;49.71211
80869;BME280;70295;40.182;44.498;2023-05-29T03:02:53;90053.09;;;21.01;49.76289
80869;BME280;70295;40.182;44.498;2023-05-29T03:03:53;90054.98;;;21.09;49.80488
80869;BME280;70295;40.182;44.498;2023-05-29T03:04:53;90055.69;;;21.18;49.77168
80869;BME280;70295;40.182;44.498;2023-05-29T03:05:53;90056.33;;;21.29;49.63496
80869;BME280;70295;40.182;44.498;2023-05-29T03:06:53;90056.56;;;21.4;49.41035
80869;BME280;70295;40.182;44.498;2023-05-29T03:07:53;90056.62;;;21.51;49.15059
80869;BME280;70295;40.182;44.498;2023-05-29T03:08:53;90057.73;;;21.62;48.94746
80869;BME280;70295;40.182;44.498;2023-05-29T03:09:53;90052.54;;;21.73;48.74531
80869;BME280;70295;40.182;44.498;2023-05-29T03:10:53;90049.75;;;21.83;48.58613
80869;BME280;70295;40.182;44.498;2023-05-29T03:11:53;90048.54;;;21.91;48.44746
80869;BME280;70295;40.182;44.498;2023-05-29T03:12:53;90045.25;;;21.97;48.34004
80869;BME280;70295;40.182;44.498;2023-05-29T03:13:53;90048.55;;;22.02;48.19844
80869;BME280;70295;40.182;44.498;2023-05-29T03:14:53;90045.33;;;22.07;48.06855
80869;BME280;70295;40.182;44.498;2023-05-29T03:15:53;90045.27;;;22.11;47.89082
80869;BME280;70295;40.182;44.498;2023-05-29T03:16:53;90047.23;;;22.14;47.72383
80869;BME280;70295;40.182;44.498;2023-05-29T03:17:53;90044.69;;;22.17;47.62422
80869;BME280;70295;40.182;44.498;2023-05-29T03:18:53;90043.38;;;22.2;47.56074
80869;BME280;70295;40.182;44.498;2023-05-29T03:19:53;90038.86;;;22.26;47.50996
80869;BME280;70295;40.182;44.498;2023-05-29T03:20:53;90037.4;;;22.31;47.39082
80869;BME280;70295;40.182;44.498;2023-05-29T03:21:53;90034.7;;;22.37;47.21504
80869;BME280;70295;40.182;44.498;2023-05-29T03:22:53;90032.3;;;22.43;47.06269
80869;BME280;70295;40.182;44.498;2023-05-29T03:23:53;90030.23;;;22.47;46.82832
80869;BME280;70295;40.182;44.498;2023-05-29T03:24:53;90028.64;;;22.49;46.66035
80869;BME280;70295;40.182;44.498;2023-05-29T03:25:53;90032.13;;;22.54;46.51777
80869;BME280;70295;40.182;44.498;2023-05-29T03:26:53;90029.13;;;22.61;46.18379
80869;BME280;70295;40.182;44.498;2023-05-29T03:27:53;90028.82;;;22.71;45.96797
80869;BME280;70295;40.182;44.498;2023-05-29T03:28:53;90035.2;;;22.85;45.79805
80869;BME280;70295;40.182;44.498;2023-05-29T03:29:53;90037.61;;;22.97;45.41328
80869;BME280;70295;40.182;44.498;2023-05-29T03:30:53;90040.86;;;23.09;44.84492
80869;BME280;70295;40.182;44.498;2023-05-29T03:31:53;90048.02;;;23.21;44.41328
80869;BME280;70295;40.182;44.498;2023-05-29T03:32:53;90050.52;;;23.3;43.91035
80869;BME280;70295;40.182;44.498;2023-05-29T03:33:53;90049.31;;;23.34;43.5373
80869;BME280;70295;40.182;44.498;2023-05-29T03:34:53;90053.31;;;23.34;43.16133
80869;BME280;70295;40.182;44.498;2023-05-29T03:35:53;90056.38;;;23.32;42.86348
80869;BME280;70295;40.182;44.498;2023-05-29T03:36:53;90057.2;;;23.28;42.59687
80869;BME280;70295;40.182;44.498;2023-05-29T03:37:53;90061.3;;;23.23;42.54609
80869;BME280;70295;40.182;44.498;2023-05-29T03:38:53;90060.39;;;23.21;42.5207
80869;BME280;70295;40.182;44.498;2023-05-29T03:39:53;90059.59;;;23.16;42.51777
80869;BME280;70295;40.182;44.498;2023-05-29T03:40:53;90056.89;;;23.13;42.54902
80869;BME280;70295;40.182;44.498;2023-05-29T03:41:53;90057.19;;;23.09;42.47578
80869;BME280;70295;40.182;44.498;2023-05-29T03:42:53;90063.31;;;23.04;42.06172
80869;BME280;70295;40.182;44.498;2023-05-29T03:43:53;90064.05;;;22.98;41.66914
80869;BME280;70295;40.182;44.498;2023-05-29T03:44:53;90062.98;;;22.9;41.44355
80869;BME280;70295;40.182;44.498;2023-05-29T03:45:53;90064.88;;;22.83;41.42598
80869;BME280;70295;40.182;44.498;2023-05-29T03:46:53;90063.79;;;22.78;41.51191
80869;BME280;70295;40.182;44.498;2023-05-29T03:47:53;90059.84;;;22.74;41.65742
80869;BME280;70295;40.182;44.498;2023-05-29T03:48:53;90067.06;;;22.72;41.79121
80869;BME280;70295;40.182;44.498;2023-05-29T03:49:53;90067.02;;;22.7;41.92598
80869;BME280;70295;40.182;44.498;2023-05-29T03:50:53;90067.92;;;22.64;42.46699
80869;BME280;70295;40.182;44.498;2023-05-29T03:51:53;90073.67;;;22.6;42.96309
80869;BME280;70295;40.182;44.498;2023-05-29T03:52:53;90074.47;;;22.53;43.30879
80869;BME280;70295;40.182;44.498;2023-05-29T03:53:53;90076.39;;;22.46;43.70039
80869;BME280;70295;40.182;44.498;2023-05-29T03:54:53;90082.85;;;22.41;44.13984
80869;BME280;70295;40.182;44.498;2023-05-29T03:55:53;90083.47;;;22.4;44.35469
80869;BME280;70295;40.182;44.498;2023-05-29T03:56:53;90082.76;;;22.4;44.30781
80869;BME280;70295;40.182;44.498;2023-05-29T03:57:53;90085.98;;;22.38;43.80586
80869;BME280;70295;40.182;44.498;2023-05-29T03:58:53;90086.72;;;22.35;43.72383
80869;BME280;70295;40.182;44.498;2023-05-29T03:59:53;90086.73;;;22.34;43.97285
80869;BME280;70295;40.182;44.498;2023-05-29T04:00:53;90088.58;;;22.34;44.34785
80869;BME280;70295;40.182;44.498;2023-05-29T04:01:53;90088.95;;;22.34;44.68965
80869;BME280;70295;40.182;44.498;2023-05-29T04:02:54;90090.17;;;22.35;44.91719
80869;BME280;70295;40.182;44.498;2023-05-29T04:03:53;90093.38;;;22.35;45.21406
80869;BME280;70295;40.182;44.498;2023-05-29T04:04:53;90096.27;;;22.36;45.6916
80869;BME280;70295;40.182;44.498;2023-05-29T04:05:53;90093.36;;;22.36;46.07734
80869;BME280;70295;40.182;44.498;2023-05-29T04:06:53;90089.58;;;22.35;46.0666
80869;BME280;70295;40.182;44.498;2023-05-29T04:07:53;90091.22;;;22.35;46.07637
80869;BME280;70295;40.182;44.498;2023-05-29T04:08:53;90091.27;;;22.34;46.13203
80869;BME280;70295;40.182;44.498;2023-05-29T04:09:53;90091.33;;;22.33;46.31367
80869;BME280;70295;40.182;44.498;2023-05-29T04:10:53;90090.48;;;22.32;46.69844
80869;BME280;70295;40.182;44.498;2023-05-29T04:11:53;90092.52;;;22.32;47.43574
80869;BME280;70295;40.182;44.498;2023-05-29T04:12:53;90092.89;;;22.31;47.81074
80869;BME280;70295;40.182;44.498;2023-05-29T04:13:53;90092.55;;;22.31;48.15156
80869;BME280;70295;40.182;44.498;2023-05-29T04:14:53;90093.71;;;22.3;48.59199
80869;BME280;70295;40.182;44.498;2023-05-29T04:15:53;90094.07;;;22.3;49.01191
80869;BME280;70295;40.182;44.498;2023-05-29T04:16:53;90095.16;;;22.3;49.19355
80869;BME280;70295;40.182;44.498;2023-05-29T04:17:53;90095.64;;;22.31;49.41133
80869;BME280;70295;40.182;44.498;2023-05-29T04:18:53;90092.95;;;22.31;49.57051
80869;BME280;70295;40.182;44.498;2023-05-29T04:19:53;90090.17;;;22.31;49.63887
80869;BME280;70295;40.182;44.498;2023-05-29T04:20:53;90094;;;22.31;49.66133
80869;BME280;70295;40.182;44.498;2023-05-29T04:21:53;90092.41;;;22.31;49.95625
80869;BME280;70295;40.182;44.498;2023-05-29T04:22:53;90091.58;;;22.32;50.20625
80869;BME280;70295;40.182;44.498;2023-05-29T04:23:53;90092.48;;;22.32;49.80976
80869;BME280;70295;40.182;44.498;2023-05-29T04:24:53;90095;;;22.33;49.64082
80869;BME280;70295;40.182;44.498;2023-05-29T04:25:53;90096.47;;;22.32;49.61738
80869;BME280;70295;40.182;44.498;2023-05-29T04:26:53;90095.44;;;22.31;49.46797
80869;BME280;70295;40.182;44.498;2023-05-29T04:27:53;90094.11;;;22.32;49.31074
80869;BME280;70295;40.182;44.498;2023-05-29T04:28:53;90092.05;;;22.33;49.15254
80869;BME280;70295;40.182;44.498;2023-05-29T04:29:53;90097.13;;;22.34;49.06269
80869;BME280;70295;40.182;44.498;2023-05-29T04:30:53;90094.3;;;22.35;48.89375
80869;BME280;70295;40.182;44.498;2023-05-29T04:31:53;90092.58;;;22.37;48.55488
80869;BME280;70295;40.182;44.498;2023-05-29T04:32:53;90095.59;;;22.38;48.23848
80869;BME280;70295;40.182;44.498;2023-05-29T04:33:55;90097.86;;;22.39;48.03535
80869;BME280;70295;40.182;44.498;2023-05-29T04:34:57;90094.82;;;22.41;48.31074
80869;BME280;70295;40.182;44.498;2023-05-29T04:35:47;90096.45;;;22.36;48.36055
80869;BME280;70295;40.182;44.498;2023-05-29T04:36:47;90095.35;;;22.39;48.79512
80869;BME280;70295;40.182;44.498;2023-05-29T04:37:47;90095.39;;;22.41;49.33125
80869;BME280;70295;40.182;44.498;2023-05-29T04:38:47;90099.05;;;22.43;49.66328
80869;BME280;70295;40.182;44.498;2023-05-29T04:39:47;90103.56;;;22.46;49.63301
80869;BME280;70295;40.182;44.498;2023-05-29T04:40:47;90105.28;;;22.48;49.67988
80869;BME280;70295;40.182;44.498;2023-05-29T04:41:47;90108.59;;;22.5;49.48945
80869;BME280;70295;40.182;44.498;2023-05-29T04:42:47;90108.63;;;22.52;49.48066
80869;BME280;70295;40.182;44.498;2023-05-29T04:43:47;90107.76;;;22.55;49.09785
80869;BME280;70295;40.182;44.498;2023-05-29T04:44:47;90110.84;;;22.6;48.93281
80869;BME280;70295;40.182;44.498;2023-05-29T04:45:47;90107.61;;;22.71;49.00117
80869;BME280;70295;40.182;44.498;2023-05-29T04:46:47;90114.48;;;22.82;49.15059
80869;BME280;70295;40.182;44.498;2023-05-29T04:47:49;90112.44;;;22.94;48.81172
80869;BME280;70295;40.182;44.498;2023-05-29T04:48:49;90105.09;;;23.01;47.92109
80869;BME280;70295;40.182;44.498;2023-05-29T04:49:27;90107.28;;;23.12;47.02363
80869;BME280;70295;40.182;44.498;2023-05-29T04:50:27;90109.87;;;23.19;46.25605
80869;BME280;70295;40.182;44.498;2023-05-29T04:51:27;90106.2;;;23.26;45.76191
80869;BME280;70295;40.182;44.498;2023-05-29T04:52:27;90107.33;;;23.33;45.46211
80869;BME280;70295;40.182;44.498;2023-05-29T04:53:27;90111.11;;;23.41;45.24336
80869;BME280;70295;40.182;44.498;2023-05-29T04:54:27;90107.05;;;23.5;44.88789
80869;BME280;70295;40.182;44.498;2023-05-29T04:55:27;90108.67;;;23.56;44.81367
80869;BME280;70295;40.182;44.498;2023-05-29T04:56:27;90109.47;;;23.6;44.65742
80869;BME280;70295;40.182;44.498;2023-05-29T04:57:27;90110.61;;;23.64;44.96992
80869;BME280;70295;40.182;44.498;2023-05-29T04:58:27;90110.11;;;23.69;45.22578
80869;BME280;70295;40.182;44.498;2023-05-29T04:59:27;90112.11;;;23.75;45.17598
80869;BME280;70295;40.182;44.498;2023-05-29T05:00:27;90114.56;;;23.79;44.71211
80869;BME280;70295;40.182;44.498;2023-05-29T05:01:27;90114.36;;;23.79;44.47187
80869;BME280;70295;40.182;44.498;2023-05-29T05:02:27;90117.77;;;23.77;44.58516
80869;BME280;70295;40.182;44.498;2023-05-29T05:03:27;90114.77;;;23.76;45.07344
80869;BME280;70295;40.182;44.498;2023-05-29T05:04:27;90115.41;;;23.74;45.49336
80869;BME280;70295;40.182;44.498;2023-05-29T05:05:27;90119.23;;;23.72;45.76484
80869;BME280;70295;40.182;44.498;2023-05-29T05:06:27;90118.72;;;23.71;45.64961
80869;BME280;70295;40.182;44.498;2023-05-29T05:08:32;90116.95;;;23.65;45.79219
80869;BME280;70295;40.182;44.498;2023-05-29T05:09:32;90120.6;;;23.65;45.81465
80869;BME280;70295;40.182;44.498;2023-05-29T05:12:08;90127.78;;;23.66;45.82734
80869;BME280;70295;40.182;44.498;2023-05-29T05:13:08;90131.15;;;23.67;45.86348
80869;BME280;70295;40.182;44.498;2023-05-29T05:14:07;90133.08;;;23.68;45.96601
80869;BME280;70295;40.182;44.498;2023-05-29T05:15:08;90138.75;;;23.68;46.27363
80869;BME280;70295;40.182;44.498;2023-05-29T05:16:07;90144.61;;;23.67;46.48945
80869;BME280;70295;40.182;44.498;2023-05-29T05:17:07;90143.55;;;23.64;46.8625
80869;BME280;70295;40.182;44.498;2023-05-29T05:18:07;90145.72;;;23.61;47.14375
80869;BME280;70295;40.182;44.498;2023-05-29T05:19:07;90151.33;;;23.59;47.54023
80869;BME280;70295;40.182;44.498;2023-05-29T05:20:08;90152.83;;;23.56;47.84394
80869;BME280;70295;40.182;44.498;2023-05-29T05:21:08;90153.13;;;23.51;48.13496
80869;BME280;70295;40.182;44.498;2023-05-29T05:22:08;90160.67;;;23.48;48.24531
80869;BME280;70295;40.182;44.498;2023-05-29T05:23:08;90161.08;;;23.44;48.28633
80869;BME280;70295;40.182;44.498;2023-05-29T05:24:08;90166.84;;;23.39;48.37226
80869;BME280;70295;40.182;44.498;2023-05-29T05:25:08;90166.27;;;23.37;48.52949
80869;BME280;70295;40.182;44.498;2023-05-29T05:26:08;90166.86;;;23.34;48.6623
80869;BME280;70295;40.182;44.498;2023-05-29T05:27:08;90164.53;;;23.3;48.77168
80869;BME280;70295;40.182;44.498;2023-05-29T05:28:08;90168.25;;;23.27;48.76777
80869;BME280;70295;40.182;44.498;2023-05-29T05:29:08;90164.3;;;23.23;48.74141
80869;BME280;70295;40.182;44.498;2023-05-29T05:30:08;90163.82;;;23.19;48.78242
80869;BME280;70295;40.182;44.498;2023-05-29T05:31:08;90163.71;;;23.16;48.73262
80869;BME280;70295;40.182;44.498;2023-05-29T05:32:08;90162.08;;;23.13;48.80976
80869;BME280;70295;40.182;44.498;2023-05-29T05:33:08;90164.41;;;23.08;49.00898
80869;BME280;70295;40.182;44.498;2023-05-29T05:34:08;90164.63;;;23.04;49.13008
80869;BME280;70295;40.182;44.498;2023-05-29T05:35:08;90167.89;;;23.01;49.20625
80869;BME280;70295;40.182;44.498;2023-05-29T05:36:08;90166.42;;;22.99;49.4084
80869;BME280;70295;40.182;44.498;2023-05-29T05:37:07;90169.84;;;22.96;49.64375
80869;BME280;70295;40.182;44.498;2023-05-29T05:38:08;90165.75;;;22.95;49.87031
80869;BME280;70295;40.182;44.498;2023-05-29T05:39:08;90165.53;;;22.93;50.00312
80869;BME280;70295;40.182;44.498;2023-05-29T05:40:08;90165.5;;;22.9;50.06953
80869;BME280;70295;40.182;44.498;2023-05-29T05:41:07;90171.48;;;22.88;50.16914
80869;BME280;70295;40.182;44.498;2023-05-29T05:42:08;90173.02;;;22.87;50.25801
80869;BME280;70295;40.182;44.498;2023-05-29T05:43:08;90173.81;;;22.86;50.37031
80869;BME280;70295;40.182;44.498;2023-05-29T05:44:08;90170.42;;;22.85;50.51582
80869;BME280;70295;40.182;44.498;2023-05-29T05:45:08;90177.89;;;22.84;50.64082
80869;BME280;70295;40.182;44.498;2023-05-29T05:46:08;90177.76;;;22.84;50.8459
80869;BME280;70295;40.182;44.498;2023-05-29T05:47:08;90181.66;;;22.82;50.94551
80869;BME280;70295;40.182;44.498;2023-05-29T05:48:08;90182.5;;;22.8;51.02363
80869;BME280;70295;40.182;44.498;2023-05-29T05:49:08;90188.03;;;22.79;51.1584
80869;BME280;70295;40.182;44.498;2023-05-29T05:50:08;90181.22;;;22.78;51.15644
80869;BME280;70295;40.182;44.498;2023-05-29T05:51:08;90184.02;;;22.74;51.0041
80869;BME280;70295;40.182;44.498;2023-05-29T05:52:08;90182.63;;;22.7;51.15937
80869;BME280;70295;40.182;44.498;2023-05-29T05:53:08;90184.56;;;22.68;51.24629